createdAt,value
2022-10-01T00:00:05.316Z,4.07
2022-10-01T00:02:35.117Z,4.13
2022-10-01T00:05:10.576Z,4.40
2022-10-01T00:07:41.500Z,4.40
2022-10-01T00:10:12.828Z,4.33
2022-10-01T00:12:47.202Z,4.70
2022-10-01T00:15:19.820Z,3.90
2022-10-01T00:17:49.673Z,3.97
2022-10-01T00:20:22.593Z,3.93
2022-10-01T00:22:52.517Z,3.90
2022-10-01T00:25:22.704Z,3.90
2022-10-01T00:27:52.525Z,3.63
2022-10-01T00:30:22.313Z,3.80
2022-10-01T00:32:52.044Z,3.70
2022-10-01T00:35:25.192Z,3.60
2022-10-01T00:37:55.235Z,3.67
2022-10-01T00:40:26.257Z,4.03
2022-10-01T00:42:56.044Z,4.10
2022-10-01T00:45:26.115Z,4.00
2022-10-01T00:47:59.170Z,3.87
2022-10-01T00:50:35.635Z,3.67
2022-10-01T00:53:12.038Z,3.70
2022-10-01T00:55:47.047Z,3.90
2022-10-01T00:58:18.418Z,3.53
2022-10-01T01:00:48.843Z,3.60
2022-10-01T01:03:19.171Z,3.90
2022-10-01T01:05:51.647Z,4.03
2022-10-01T01:08:21.784Z,3.90
2022-10-01T01:11:02.449Z,3.97
2022-10-01T01:13:40.223Z,3.63
2022-10-01T01:16:17.222Z,3.57
2022-10-01T01:18:55.508Z,3.83
2022-10-01T01:21:33.806Z,3.30
2022-10-01T01:24:32.978Z,3.30
2022-10-01T01:27:16.522Z,3.27
2022-10-01T01:29:55.573Z,3.63
2022-10-01T01:32:31.393Z,3.13
2022-10-01T01:35:04.469Z,3.53
2022-10-01T01:37:40.269Z,3.40
2022-10-01T01:40:13.569Z,3.37
2022-10-01T01:42:47.012Z,3.60
2022-10-01T01:45:23.149Z,3.33
2022-10-01T01:47:56.883Z,3.17
2022-10-01T01:50:30.623Z,3.27
2022-10-01T01:53:03.228Z,3.33
2022-10-01T01:55:33.632Z,3.00
2022-10-01T01:58:04.169Z,2.70
2022-10-01T02:00:36.810Z,3.30
2022-10-01T02:03:07.189Z,2.90
2022-10-01T02:05:45.853Z,3.00
2022-10-01T02:08:29.033Z,2.77
2022-10-01T02:11:21.830Z,2.90
2022-10-01T02:14:02.744Z,2.90
2022-10-01T02:16:42.314Z,2.83
2022-10-01T02:19:21.838Z,2.60
2022-10-01T02:22:01.590Z,2.80
2022-10-01T02:24:38.457Z,2.90
2022-10-01T02:27:14.315Z,2.83
2022-10-01T02:29:48.226Z,2.50
2022-10-01T02:32:22.371Z,2.27
2022-10-01T02:34:53.704Z,2.53
2022-10-01T02:37:28.054Z,2.50
2022-10-01T02:39:59.893Z,2.50
2022-10-01T02:42:32.469Z,2.50
2022-10-01T02:45:06.228Z,2.47
2022-10-01T02:47:43.729Z,2.90
2022-10-01T02:50:15.067Z,3.03
2022-10-01T02:52:50.252Z,2.97
2022-10-01T02:55:23.292Z,2.63
2022-10-01T02:57:50.625Z,2.47
2022-10-01T03:00:22.457Z,2.57
2022-10-01T03:02:55.159Z,2.50
2022-10-01T03:05:26.037Z,2.50
2022-10-01T03:07:55.967Z,2.57
2022-10-01T03:10:25.775Z,2.53
2022-10-01T03:12:55.904Z,2.77
2022-10-01T03:15:25.637Z,2.43
2022-10-01T03:17:58.072Z,2.50
2022-10-01T03:20:27.942Z,2.50
2022-10-01T03:22:57.715Z,2.50
2022-10-01T03:25:27.497Z,2.50
2022-10-01T03:27:58.754Z,2.67
2022-10-01T03:30:28.582Z,2.50
2022-10-01T03:33:00.997Z,2.50
2022-10-01T03:35:32.183Z,2.37
2022-10-01T03:38:03.020Z,2.53
2022-10-01T03:40:34.316Z,2.40
2022-10-01T03:43:04.187Z,2.50
2022-10-01T03:45:33.966Z,2.17
2022-10-01T03:48:06.537Z,2.73
2022-10-01T03:50:36.838Z,2.43
2022-10-01T03:53:06.679Z,2.40
2022-10-01T03:55:36.478Z,2.23
2022-10-01T03:58:06.365Z,2.40
2022-10-01T04:00:36.168Z,2.03
2022-10-01T04:03:09.105Z,2.10
2022-10-01T04:05:38.957Z,2.00
2022-10-01T04:08:09.192Z,2.40
2022-10-01T04:10:39.047Z,2.10
2022-10-01T04:13:09.587Z,1.97
2022-10-01T04:15:40.417Z,2.30
2022-10-01T04:18:13.402Z,1.90
2022-10-01T04:20:43.232Z,1.67
2022-10-01T04:23:12.934Z,2.00
2022-10-01T04:25:42.747Z,1.80
2022-10-01T04:28:15.182Z,1.90
2022-10-01T04:30:47.571Z,1.73
2022-10-01T04:33:19.998Z,2.10
2022-10-01T04:35:49.767Z,1.90
2022-10-01T04:38:20.559Z,2.10
2022-10-01T04:40:50.410Z,1.83
2022-10-01T04:43:20.267Z,1.80
2022-10-01T04:45:50.095Z,2.00
2022-10-01T04:48:22.527Z,1.70
2022-10-01T04:50:52.340Z,1.77
2022-10-01T04:53:22.122Z,1.80
2022-10-01T04:55:51.869Z,1.60
2022-10-01T04:58:21.660Z,1.67
2022-10-01T05:00:52.115Z,1.90
2022-10-01T05:03:24.654Z,1.80
2022-10-01T05:05:54.433Z,1.77
2022-10-01T05:08:24.231Z,1.80
2022-10-01T05:10:54.062Z,1.87
2022-10-01T05:13:23.811Z,2.00
2022-10-01T05:15:54.827Z,1.50
2022-10-01T05:18:27.293Z,1.43
2022-10-01T05:20:57.079Z,1.70
2022-10-01T05:23:26.924Z,1.70
2022-10-01T05:25:56.697Z,1.73
2022-10-01T05:28:28.171Z,1.70
2022-10-01T05:31:00.682Z,1.70
2022-10-01T05:33:34.305Z,1.53
2022-10-01T05:36:05.271Z,1.57
2022-10-01T05:38:36.344Z,1.80
2022-10-01T05:41:06.221Z,1.60
2022-10-01T05:43:36.438Z,1.53
2022-10-01T05:46:07.993Z,1.43
2022-10-01T05:48:40.435Z,1.63
2022-10-01T05:51:10.426Z,1.40
2022-10-01T05:53:40.530Z,1.40
2022-10-01T05:56:10.798Z,1.23
2022-10-01T05:58:40.501Z,1.50
2022-10-01T06:01:13.240Z,1.30
2022-10-01T06:03:45.747Z,1.50
2022-10-01T06:06:15.655Z,1.60
2022-10-01T06:08:46.992Z,1.50
2022-10-01T06:11:17.190Z,1.23
2022-10-01T06:13:47.041Z,1.40
2022-10-01T06:16:17.965Z,1.30
2022-10-01T06:18:52.204Z,1.30
2022-10-01T06:21:22.066Z,1.60
2022-10-01T06:23:51.965Z,1.40
2022-10-01T06:26:22.574Z,1.53
2022-10-01T06:28:53.053Z,1.57
2022-10-01T06:31:23.085Z,1.50
2022-10-01T06:33:55.573Z,1.33
2022-10-01T06:36:25.346Z,1.50
2022-10-01T06:38:55.117Z,1.20
2022-10-01T06:41:25.078Z,1.47
2022-10-01T06:43:54.784Z,1.60
2022-10-01T06:46:24.513Z,1.50
2022-10-01T06:48:56.969Z,1.33
2022-10-01T06:51:46.759Z,1.40
2022-10-01T06:54:18.608Z,1.53
2022-10-01T06:56:48.368Z,1.57
2022-10-01T06:59:18.128Z,1.47
2022-10-01T07:01:48.067Z,1.80
2022-10-01T07:04:20.456Z,1.40
2022-10-01T07:06:50.240Z,1.57
2022-10-01T07:09:19.997Z,1.43
2022-10-01T07:11:49.855Z,1.50
2022-10-01T07:14:19.635Z,1.60
2022-10-01T07:16:49.470Z,1.60
2022-10-01T07:19:21.949Z,1.90
2022-10-01T07:21:51.884Z,1.90
2022-10-01T07:24:21.669Z,1.57
2022-10-01T07:26:51.402Z,1.80
2022-10-01T07:29:21.247Z,1.87
2022-10-01T07:31:51.097Z,1.70
2022-10-01T07:34:24.973Z,1.93
2022-10-01T07:36:56.422Z,1.70
2022-10-01T07:39:26.453Z,1.57
2022-10-01T07:41:56.265Z,2.07
2022-10-01T07:44:26.744Z,2.00
2022-10-01T07:46:56.758Z,1.70
2022-10-01T07:49:29.710Z,1.70
2022-10-01T07:51:59.880Z,1.73
2022-10-01T07:54:29.815Z,1.73
2022-10-01T07:57:00.144Z,1.80
2022-10-01T07:59:31.363Z,1.50
2022-10-01T08:02:01.438Z,1.83
2022-10-01T08:04:46.269Z,1.60
2022-10-01T08:07:16.028Z,1.70
2022-10-01T08:09:46.074Z,1.60
2022-10-01T08:12:17.984Z,1.90
2022-10-01T08:14:48.153Z,1.90
2022-10-01T08:17:18.033Z,1.43
2022-10-01T08:19:51.088Z,1.80
2022-10-01T08:22:21.083Z,1.87
2022-10-01T08:24:51.010Z,1.67
2022-10-01T08:27:20.903Z,1.50
2022-10-01T08:29:50.772Z,1.80
2022-10-01T08:32:20.678Z,2.00
2022-10-01T08:34:56.815Z,1.80
2022-10-01T08:37:30.115Z,1.80
2022-10-01T08:40:00.121Z,1.60
2022-10-01T08:42:50.598Z,1.90
2022-10-01T08:45:26.561Z,1.70
2022-10-01T08:48:04.330Z,2.10
2022-10-01T08:50:44.060Z,1.83
2022-10-01T08:53:19.489Z,2.00
2022-10-01T08:55:50.549Z,1.80
2022-10-01T08:58:28.579Z,2.20
2022-10-01T09:00:58.633Z,2.00
2022-10-01T09:03:33.666Z,2.03
2022-10-01T09:06:20.483Z,2.20
2022-10-01T09:09:16.533Z,2.20
2022-10-01T09:12:01.347Z,2.10
2022-10-01T09:14:44.252Z,1.73
2022-10-01T09:17:23.331Z,2.13
2022-10-01T09:20:13.909Z,1.80
2022-10-01T09:22:57.890Z,1.93
2022-10-01T09:25:29.984Z,1.50
2022-10-01T09:28:05.393Z,1.80
2022-10-01T09:30:36.696Z,2.10
2022-10-01T09:33:14.455Z,2.00
2022-10-01T09:35:48.660Z,2.00
2022-10-01T09:38:26.228Z,1.97
2022-10-01T09:40:57.731Z,1.70
2022-10-01T09:43:30.621Z,2.17
2022-10-01T09:46:00.998Z,2.20
2022-10-01T09:48:36.286Z,2.50
2022-10-01T09:51:13.787Z,2.20
2022-10-01T09:53:51.717Z,1.80
2022-10-01T09:56:29.160Z,1.80
2022-10-01T09:59:03.015Z,1.77
2022-10-01T10:01:45.003Z,1.70
2022-10-01T10:04:21.008Z,1.70
2022-10-01T10:06:51.291Z,1.57
2022-10-01T10:09:31.013Z,1.53
2022-10-01T10:12:01.462Z,1.40
2022-10-01T10:14:34.862Z,1.50
2022-10-01T10:17:08.784Z,1.50
2022-10-01T10:19:40.163Z,1.80
2022-10-01T10:22:14.632Z,1.63
2022-10-01T10:24:47.281Z,1.60
2022-10-01T10:27:25.431Z,1.70
2022-10-01T10:30:05.086Z,1.87
2022-10-01T10:32:35.511Z,1.97
2022-10-01T10:35:13.438Z,1.93
2022-10-01T10:37:49.890Z,1.70
2022-10-01T10:40:29.467Z,1.27
2022-10-01T10:43:01.762Z,1.23
2022-10-01T10:45:37.509Z,1.23
2022-10-01T10:48:10.485Z,1.47
2022-10-01T10:50:43.002Z,1.40
2022-10-01T10:53:22.764Z,1.43
2022-10-01T10:56:03.936Z,1.50
2022-10-01T10:58:38.241Z,1.00
2022-10-01T11:01:11.425Z,1.10
2022-10-01T11:03:47.262Z,1.40
2022-10-01T11:06:18.846Z,0.90
2022-10-01T11:08:57.312Z,0.97
2022-10-01T11:11:39.742Z,0.93
2022-10-01T11:14:26.131Z,0.70
2022-10-01T11:17:08.274Z,0.80
2022-10-01T11:19:57.377Z,0.80
2022-10-01T11:22:52.693Z,0.63
2022-10-01T11:25:34.490Z,0.73
2022-10-01T11:28:21.652Z,0.57
2022-10-01T11:31:04.470Z,0.77
2022-10-01T11:33:45.247Z,0.67
2022-10-01T11:36:25.177Z,0.73
2022-10-01T11:39:01.359Z,1.00
2022-10-01T11:41:36.619Z,1.00
2022-10-01T11:44:16.757Z,0.80
2022-10-01T11:46:56.334Z,0.90
2022-10-01T11:49:53.416Z,1.07
2022-10-01T11:52:35.422Z,0.77
2022-10-01T11:55:30.707Z,0.80
2022-10-01T11:58:22.853Z,0.80
2022-10-01T12:01:07.974Z,0.90
2022-10-01T12:03:48.960Z,0.90
2022-10-01T12:06:25.087Z,0.73
2022-10-01T12:09:03.328Z,0.90
2022-10-01T12:11:39.471Z,0.80
2022-10-01T12:14:16.838Z,1.87
2022-10-01T12:16:54.314Z,1.87
2022-10-01T12:19:27.950Z,1.20
2022-10-01T12:22:01.702Z,1.00
2022-10-01T12:24:34.729Z,1.33
2022-10-01T12:27:21.867Z,0.70
2022-10-01T12:29:57.353Z,1.23
2022-10-01T12:32:39.849Z,0.80
2022-10-01T12:35:25.991Z,0.90
2022-10-01T12:38:12.176Z,0.80
2022-10-01T12:40:49.033Z,0.97
2022-10-01T12:43:40.116Z,0.97
2022-10-01T12:46:20.237Z,0.80
2022-10-01T12:49:01.924Z,0.60
2022-10-01T12:51:43.141Z,1.10
2022-10-01T12:54:41.926Z,0.90
2022-10-01T12:57:25.074Z,0.90
2022-10-01T13:00:08.178Z,0.53
2022-10-01T13:03:28.162Z,0.70
2022-10-01T13:06:13.586Z,8.80
2022-10-01T13:08:57.844Z,5.80
2022-10-01T13:11:42.403Z,2.30
2022-10-01T13:14:16.245Z,1.30
2022-10-01T13:16:54.624Z,0.80
2022-10-01T13:19:31.162Z,0.90
2022-10-01T13:22:11.726Z,0.93
2022-10-01T13:24:45.580Z,0.80
2022-10-01T13:27:20.604Z,0.90
2022-10-01T13:30:00.224Z,0.90
2022-10-01T13:32:34.457Z,0.70
2022-10-01T13:35:05.631Z,0.87
2022-10-01T13:37:41.423Z,0.80
2022-10-01T13:40:29.708Z,0.77
2022-10-01T13:43:02.825Z,0.70
2022-10-01T13:45:42.951Z,5.97
2022-10-01T13:48:21.459Z,1.30
2022-10-01T13:51:03.218Z,1.40
2022-10-01T13:53:39.136Z,1.07
2022-10-01T13:56:20.354Z,1.20
2022-10-01T13:58:50.483Z,1.80
2022-10-01T14:01:47.174Z,2.30
2022-10-01T14:04:22.869Z,1.40
2022-10-01T14:06:55.812Z,1.17
2022-10-01T14:09:31.871Z,1.17
2022-10-01T14:12:20.447Z,0.60
2022-10-01T14:15:08.152Z,0.60
2022-10-01T14:17:39.274Z,1.03
2022-10-01T14:20:10.859Z,1.37
2022-10-01T14:23:08.140Z,0.73
2022-10-01T14:25:54.457Z,1.07
2022-10-01T14:28:36.769Z,1.03
2022-10-01T14:31:12.564Z,0.97
2022-10-01T14:34:09.739Z,0.80
2022-10-01T14:36:45.008Z,2.73
2022-10-01T14:39:17.902Z,6.10
2022-10-01T14:41:52.103Z,1.67
2022-10-01T14:44:25.772Z,1.50
2022-10-01T14:46:57.829Z,2.40
2022-10-01T14:49:30.577Z,2.07
2022-10-01T14:52:03.719Z,0.90
2022-10-01T14:54:37.528Z,1.50
2022-10-01T14:57:18.037Z,1.17
2022-10-01T14:59:51.387Z,1.10
2022-10-01T15:02:23.851Z,1.20
2022-10-01T15:04:56.692Z,1.10
2022-10-01T15:07:28.263Z,0.97
2022-10-01T15:10:09.146Z,1.13
2022-10-01T15:12:44.610Z,1.30
2022-10-01T15:15:27.676Z,0.77
2022-10-01T15:17:57.648Z,1.17
2022-10-01T15:20:27.784Z,1.73
2022-10-01T15:23:01.446Z,1.90
2022-10-01T15:25:34.419Z,1.33
2022-10-01T15:28:16.699Z,2.60
2022-10-01T15:30:47.240Z,2.37
2022-10-01T15:33:28.742Z,1.83
2022-10-01T15:36:04.119Z,1.30
2022-10-01T15:38:35.083Z,1.60
2022-10-01T15:41:30.705Z,2.80
2022-10-01T15:44:02.844Z,1.60
2022-10-01T15:46:35.598Z,2.10
2022-10-01T15:49:19.945Z,1.80
2022-10-01T15:52:07.611Z,2.00
2022-10-01T15:54:38.487Z,1.97
2022-10-01T15:57:09.173Z,2.27
2022-10-01T15:59:43.613Z,1.90
2022-10-01T16:02:20.526Z,1.50
2022-10-01T16:04:51.109Z,3.40
2022-10-01T16:07:24.545Z,1.50
2022-10-01T16:09:55.687Z,1.00
2022-10-01T16:12:26.189Z,1.03
2022-10-01T16:15:07.248Z,0.73
2022-10-01T16:17:38.283Z,1.23
2022-10-01T16:20:39.402Z,0.70
2022-10-01T16:23:39.675Z,0.50
2022-10-01T16:26:34.647Z,1.33
2022-10-01T16:29:07.649Z,2.10
2022-10-01T16:31:43.875Z,1.27
2022-10-01T16:34:14.850Z,0.80
2022-10-01T16:36:45.168Z,0.97
2022-10-01T16:39:15.780Z,0.93
2022-10-01T16:42:06.335Z,0.80
2022-10-01T16:44:42.563Z,1.13
2022-10-01T16:47:16.083Z,0.90
2022-10-01T16:49:47.206Z,0.90
2022-10-01T16:52:18.659Z,1.33
2022-10-01T16:54:48.543Z,1.70
2022-10-01T16:57:18.980Z,1.70
2022-10-01T16:59:48.831Z,1.50
2022-10-01T17:02:21.287Z,1.10
2022-10-01T17:04:51.237Z,1.40
2022-10-01T17:07:21.100Z,1.10
2022-10-01T17:09:50.983Z,1.13
2022-10-01T17:12:20.827Z,1.20
2022-10-01T17:14:51.334Z,1.07
2022-10-01T17:17:23.775Z,1.20
2022-10-01T17:19:53.546Z,0.93
2022-10-01T17:22:23.322Z,1.00
2022-10-01T17:24:53.176Z,1.13
2022-10-01T17:27:22.936Z,1.30
2022-10-01T17:29:52.809Z,3.23
2022-10-01T17:32:25.191Z,1.87
2022-10-01T17:34:55.680Z,1.70
2022-10-01T17:37:25.861Z,1.20
2022-10-01T17:39:55.633Z,1.80
2022-10-01T17:42:25.417Z,2.10
2022-10-01T17:44:55.278Z,4.00
2022-10-01T17:47:27.746Z,2.70
2022-10-01T17:49:57.440Z,1.70
2022-10-01T17:52:27.237Z,1.60
2022-10-01T17:54:57.022Z,1.50
2022-10-01T17:57:26.829Z,1.20
2022-10-01T17:59:56.633Z,1.50
2022-10-01T18:02:41.651Z,2.93
2022-10-01T18:05:15.130Z,1.90
2022-10-01T18:07:45.660Z,2.30
2022-10-01T18:10:16.450Z,1.97
2022-10-01T18:12:46.276Z,1.47
2022-10-01T18:15:18.819Z,1.17
2022-10-01T18:18:38.079Z,1.47
2022-10-01T18:20:43.409Z,1.37
2022-10-01T18:23:13.218Z,1.40
2022-10-01T18:25:43.044Z,1.80
2022-10-01T18:28:12.847Z,1.73
2022-10-01T18:30:42.753Z,1.50
2022-10-01T18:33:16.382Z,2.10
2022-10-01T18:35:46.639Z,2.00
2022-10-01T18:38:24.884Z,1.53
2022-10-01T18:40:59.654Z,1.70
2022-10-01T18:43:29.477Z,1.40
2022-10-01T18:46:13.116Z,1.80
2022-10-01T18:49:00.274Z,1.50
2022-10-01T18:51:51.126Z,3.23
2022-10-01T18:54:41.465Z,2.73
2022-10-01T18:57:21.488Z,2.23
2022-10-01T19:00:04.304Z,2.40
2022-10-01T19:03:05.185Z,2.10
2022-10-01T19:06:05.130Z,2.43
2022-10-01T19:08:52.348Z,2.57
2022-10-01T19:11:33.119Z,2.50
2022-10-01T19:14:21.948Z,2.53
2022-10-01T19:17:01.620Z,2.10
2022-10-01T19:19:44.665Z,2.87
2022-10-01T19:22:25.391Z,2.70
2022-10-01T19:25:09.018Z,2.60
2022-10-01T19:27:55.493Z,2.77
2022-10-01T19:30:25.573Z,2.20
2022-10-01T19:33:02.131Z,2.60
2022-10-01T19:35:35.467Z,2.70
2022-10-01T19:38:08.950Z,2.40
2022-10-01T19:40:46.227Z,2.17
2022-10-01T19:43:21.970Z,2.10
2022-10-01T19:45:57.603Z,2.17
2022-10-01T19:48:37.258Z,1.70
2022-10-01T19:51:12.571Z,1.97
2022-10-01T19:53:47.155Z,2.10
2022-10-01T19:56:23.656Z,1.77
2022-10-01T19:58:53.943Z,1.80
2022-10-01T20:01:27.065Z,1.50
2022-10-01T20:04:03.806Z,1.83
2022-10-01T20:06:37.397Z,1.67
2022-10-01T20:09:14.688Z,1.47
2022-10-01T20:11:51.873Z,2.10
2022-10-01T20:14:53.716Z,1.80
2022-10-01T20:17:29.019Z,1.80
2022-10-01T20:20:06.713Z,1.80
2022-10-01T20:22:43.460Z,1.87
2022-10-01T20:25:22.043Z,1.60
2022-10-01T20:28:06.910Z,1.80
2022-10-01T20:30:44.975Z,2.00
2022-10-01T20:33:24.280Z,1.90
2022-10-01T20:36:03.713Z,1.87
2022-10-01T20:38:39.411Z,1.67
2022-10-01T20:41:16.219Z,1.40
2022-10-01T20:43:52.478Z,1.90
2022-10-01T20:46:32.479Z,1.80
2022-10-01T20:49:07.278Z,1.90
2022-10-01T20:51:43.305Z,1.80
2022-10-01T20:54:15.571Z,1.60
2022-10-01T20:56:50.218Z,2.10
2022-10-01T20:59:28.960Z,1.80
2022-10-01T21:02:04.154Z,1.90
2022-10-01T21:04:38.403Z,2.13
2022-10-01T21:07:17.813Z,2.20
2022-10-01T21:09:51.657Z,2.33
2022-10-01T21:12:24.917Z,2.77
2022-10-01T21:14:58.718Z,2.53
2022-10-01T21:17:42.830Z,2.30
2022-10-01T21:20:27.712Z,2.00
2022-10-01T21:23:10.964Z,2.30
2022-10-01T21:25:52.151Z,2.90
2022-10-01T21:28:42.489Z,2.70
2022-10-01T21:31:28.005Z,2.60
2022-10-01T21:34:05.930Z,2.13
2022-10-01T21:36:40.253Z,2.03
2022-10-01T21:39:17.998Z,2.20
2022-10-01T21:42:01.870Z,2.13
2022-10-01T21:45:04.526Z,2.00
2022-10-01T21:47:51.095Z,2.50
2022-10-01T21:50:35.745Z,2.10
2022-10-01T21:53:29.383Z,2.00
2022-10-01T21:56:20.633Z,1.93
2022-10-01T21:59:04.766Z,2.37
2022-10-01T22:01:50.608Z,2.43
2022-10-01T22:04:32.239Z,2.50
2022-10-01T22:07:08.023Z,2.20
2022-10-01T22:09:43.516Z,2.23
2022-10-01T22:12:15.021Z,2.00
2022-10-01T22:14:47.268Z,2.00
2022-10-01T22:17:20.849Z,1.50
2022-10-01T22:19:56.982Z,1.70
2022-10-01T22:22:34.340Z,1.70
2022-10-01T22:25:05.697Z,1.80
2022-10-01T22:27:41.564Z,1.83
2022-10-01T22:30:15.048Z,2.00
2022-10-01T22:32:50.177Z,1.83
2022-10-01T22:35:27.585Z,1.97
2022-10-01T22:38:01.933Z,1.80
2022-10-01T22:40:37.402Z,1.73
2022-10-01T22:43:11.660Z,2.10
2022-10-01T22:45:55.750Z,2.13
2022-10-01T22:48:51.810Z,1.77
2022-10-01T22:51:40.196Z,2.10
2022-10-01T22:54:24.920Z,2.17
2022-10-01T22:57:06.077Z,2.27
2022-10-01T22:59:46.745Z,1.60
2022-10-01T23:02:27.137Z,2.13
2022-10-01T23:05:09.065Z,1.60
2022-10-01T23:07:50.525Z,1.93
2022-10-01T23:10:28.120Z,2.10
2022-10-01T23:13:06.901Z,1.80
2022-10-01T23:15:43.452Z,1.90
2022-10-01T23:18:24.485Z,1.47
2022-10-01T23:21:08.613Z,1.93
2022-10-01T23:23:43.871Z,1.60
2022-10-01T23:26:30.026Z,1.63
2022-10-01T23:29:20.469Z,1.80
2022-10-01T23:32:02.993Z,2.77
2022-10-01T23:34:41.948Z,2.40
2022-10-01T23:37:30.162Z,1.90
2022-10-01T23:40:07.627Z,1.57
2022-10-01T23:42:41.402Z,1.50
2022-10-01T23:45:26.993Z,2.03
2022-10-01T23:48:05.695Z,1.90
2022-10-01T23:50:42.818Z,2.07
2022-10-01T23:53:19.472Z,3.40
2022-10-01T23:56:21.707Z,2.40
2022-10-01T23:58:57.560Z,2.60
